createdAt,value
2023-02-18T00:21:44.495Z,14.82
2023-02-18T00:24:38.743Z,15.25
2023-02-18T00:27:17.976Z,16.73
2023-02-18T00:29:55.910Z,14.98
2023-02-18T00:32:40.466Z,13.60
2023-02-18T00:35:16.848Z,15.82
2023-02-18T00:40:37.717Z,16.10
2023-02-18T00:43:08.971Z,14.32
2023-02-18T00:45:47.851Z,14.95
2023-02-18T00:48:27.897Z,15.05
2023-02-18T00:54:48.626Z,14.25
2023-02-18T01:03:42.911Z,12.07
2023-02-18T01:06:19.211Z,12.65
2023-02-18T01:09:11.285Z,9.82
2023-02-18T01:11:59.248Z,11.02
2023-02-18T01:14:44.442Z,9.90
2023-02-18T01:17:14.912Z,8.05
2023-02-18T01:20:09.164Z,8.13
2023-02-18T01:23:10.192Z,8.07
2023-02-18T01:31:12.402Z,7.38
2023-02-18T01:35:07.309Z,6.97
2023-02-18T02:53:00.403Z,10.95
2023-02-18T03:29:23.896Z,13.60
2023-02-18T03:32:00.428Z,12.43
2023-02-18T03:34:35.738Z,12.60
2023-02-18T03:37:03.445Z,11.52
2023-02-18T03:39:34.555Z,12.50
2023-02-18T03:42:01.901Z,13.20
2023-02-18T03:44:32.675Z,15.02
2023-02-18T03:47:35.420Z,12.38
2023-02-18T04:06:04.898Z,7.97
2023-02-18T04:10:14.182Z,6.30
2023-02-18T04:12:39.962Z,7.07
2023-02-18T04:15:18.531Z,7.80
2023-02-18T04:17:56.499Z,9.55
2023-02-18T04:20:26.903Z,8.25
2023-02-18T04:23:19.096Z,8.15
2023-02-18T04:25:48.838Z,9.07
2023-02-18T04:28:20.856Z,10.98
2023-02-18T04:30:50.593Z,12.65
2023-02-18T04:33:17.863Z,14.77
2023-02-18T04:35:45.087Z,18.25
2023-02-18T04:38:12.433Z,15.73
2023-02-18T04:40:40.040Z,15.27
2023-02-18T04:43:09.309Z,14.00
2023-02-18T04:45:39.849Z,14.23
2023-02-18T04:48:08.846Z,12.65
2023-02-18T04:50:39.293Z,12.80
2023-02-18T04:53:18.586Z,12.35
2023-02-18T04:55:58.268Z,14.00
2023-02-18T05:37:31.726Z,18.33
2023-02-18T05:40:53.873Z,23.02
2023-02-18T05:43:36.001Z,18.23
2023-02-18T05:46:17.213Z,16.33
2023-02-18T05:48:51.794Z,15.23
2023-02-18T05:51:25.266Z,14.27
2023-02-18T05:56:52.596Z,12.57
2023-02-18T05:59:20.781Z,12.52
2023-02-18T06:01:56.992Z,11.35
2023-02-18T06:04:38.575Z,11.18
2023-02-18T06:07:07.836Z,11.57
2023-02-18T06:13:21.737Z,11.15
2023-02-18T06:18:46.261Z,10.75
2023-02-18T06:22:32.991Z,11.27
2023-02-18T06:25:03.045Z,10.02
2023-02-18T06:27:47.613Z,10.93
2023-02-18T06:56:12.749Z,24.63
2023-02-18T06:58:43.997Z,23.08
2023-02-18T07:01:10.969Z,21.83
2023-02-18T07:03:50.210Z,19.48
2023-02-18T07:06:30.887Z,18.10
2023-02-18T07:08:58.393Z,18.27
2023-02-18T07:11:28.419Z,17.90
2023-02-18T07:13:55.496Z,14.98
2023-02-18T07:25:51.199Z,17.27
2023-02-18T07:31:32.610Z,16.67
2023-02-18T08:02:33.842Z,20.85
2023-02-18T08:07:06.682Z,17.65
2023-02-18T11:37:28.977Z,14.20
2023-02-18T11:39:56.604Z,14.73
2023-02-18T11:42:26.793Z,14.38
2023-02-18T12:06:38.675Z,13.30
2023-02-18T12:09:25.033Z,13.48
2023-02-18T12:11:59.839Z,13.07
2023-02-18T12:39:03.435Z,12.43
2023-02-18T12:41:39.998Z,11.57
2023-02-18T13:39:52.291Z,9.27
2023-02-18T13:42:19.257Z,10.52
2023-02-18T14:10:16.796Z,7.47
2023-02-18T14:12:44.803Z,6.75
2023-02-18T14:15:20.581Z,6.53
2023-02-18T15:09:19.479Z,14.13
2023-02-18T15:11:50.896Z,15.77
2023-02-18T15:14:25.521Z,14.02
2023-02-18T15:16:52.712Z,18.15
2023-02-18T16:41:21.105Z,5.53
2023-02-18T16:43:48.058Z,5.50
2023-02-18T17:14:23.941Z,5.70
2023-02-18T17:16:53.737Z,6.75
2023-02-18T18:49:19.922Z,5.35
2023-02-18T19:46:08.957Z,20.27
2023-02-18T19:48:36.400Z,19.27
2023-02-18T19:51:04.450Z,18.60
2023-02-18T20:47:26.834Z,35.22
2023-02-18T20:50:05.654Z,27.48
2023-02-18T20:52:37.532Z,22.77
2023-02-18T21:16:39.129Z,17.55
2023-02-18T21:19:08.521Z,12.85
2023-02-18T21:21:35.966Z,14.07
2023-02-18T22:49:33.843Z,18.77
2023-02-18T22:52:00.736Z,17.77
2023-02-18T22:54:27.665Z,20.92
2023-02-18T23:21:21.560Z,15.50
2023-02-18T23:23:54.869Z,16.90
